Time;durP1;ratioP1;P1;durP2;ratioP2;P2;SDS_P1;SDS_P2;PMS_P1;PMS_P2;Temp;Humidity;BMP_temperature;BMP_pressure;BME280_temperature;BME280_humidity;BME280_pressure;Samples;Min_cycle;Max_cycle;Signal;HPM_P1;HPM_P2
2022/10/19 00:01:49;;;;;;;4.10;2.10;;;;;;;;;;5086857;27;20234;-53
2022/10/19 00:04:15;;;;;;;4.47;1.92;;;;;;;;;;5095459;27;20239;-52
2022/10/19 00:06:42;;;;;;;4.95;2.40;;;;;;;;;;5083403;27;20238;-52
2022/10/19 00:09:11;;;;;;;2.70;2.50;;;;;;;;;;5085761;27;20225;-52
2022/10/19 00:11:38;;;;;;;4.40;1.77;;;;;;;;;;5073997;28;20230;-52
2022/10/19 00:14:06;;;;;;;5.60;2.47;;;;;;;;;;5086745;28;20233;-54
2022/10/19 00:16:35;;;;;;;2.95;1.83;;;;;;;;;;5095070;27;20237;-54
2022/10/19 00:19:03;;;;;;;4.00;2.42;;;;;;;;;;5087712;27;20333;-53
2022/10/19 00:21:29;;;;;;;2.25;1.88;;;;;;;;;;5089967;27;20227;-53
2022/10/19 00:23:56;;;;;;;5.43;2.60;;;;;;;;;;5089728;27;20746;-53
2022/10/19 00:26:23;;;;;;;2.33;1.60;;;;;;;;;;5086543;27;20234;-53
2022/10/19 00:28:50;;;;;;;4.88;2.00;;;;;;;;;;5080748;27;20659;-52
2022/10/19 00:31:17;;;;;;;3.80;1.90;;;;;;;;;;5079632;28;20328;-52
2022/10/19 00:33:45;;;;;;;2.22;1.92;;;;;;;;;;5080036;27;20239;-52
2022/10/19 00:36:15;;;;;;;3.05;2.08;;;;;;;;;;5085847;27;20234;-52
2022/10/19 00:38:42;;;;;;;4.65;2.03;;;;;;;;;;5089665;27;20234;-53
2022/10/19 00:41:08;;;;;;;2.95;1.70;;;;;;;;;;5070606;27;20745;-53
2022/10/19 00:46:27;;;;;;;6.05;2.72;;;;;;;;;;5099734;27;20722;-53
2022/10/19 00:48:55;;;;;;;5.83;2.03;;;;;;;;;;5079904;28;20684;-53
2022/10/19 00:51:22;;;;;;;6.30;2.08;;;;;;;;;;5077108;28;20238;-53
2022/10/19 00:53:48;;;;;;;3.60;2.60;;;;;;;;;;5081292;28;20585;-52
2022/10/19 00:56:15;;;;;;;3.78;2.03;;;;;;;;;;5080182;28;20245;-52
2022/10/19 00:58:42;;;;;;;4.45;2.25;;;;;;;;;;5082059;28;20658;-52
2022/10/19 01:01:09;;;;;;;2.47;2.20;;;;;;;;;;5082146;28;20260;-52
2022/10/19 01:03:37;;;;;;;2.70;1.60;;;;;;;;;;5077069;28;20307;-52
2022/10/19 01:06:03;;;;;;;2.40;1.85;;;;;;;;;;5080985;28;20241;-52
2022/10/19 01:08:30;;;;;;;2.85;1.92;;;;;;;;;;5080265;28;20234;-53
2022/10/19 01:11:02;;;;;;;4.70;2.10;;;;;;;;;;5077903;28;20237;-53
2022/10/19 01:13:34;;;;;;;6.75;2.17;;;;;;;;;;5075899;28;20226;-53
2022/10/19 01:16:02;;;;;;;4.57;1.63;;;;;;;;;;5079520;28;20324;-53
2022/10/19 01:18:31;;;;;;;2.03;1.50;;;;;;;;;;5081855;28;20308;-52
2022/10/19 01:21:12;;;;;;;3.80;1.02;;;;;;;;;;5078683;28;20596;-52
2022/10/19 01:23:53;;;;;;;4.03;1.60;;;;;;;;;;5079707;28;20233;-52
2022/10/19 01:26:32;;;;;;;3.50;1.88;;;;;;;;;;5047315;28;20269;-53
2022/10/19 01:29:04;;;;;;;3.33;1.30;;;;;;;;;;5077156;28;20230;-52
2022/10/19 01:31:35;;;;;;;3.80;1.77;;;;;;;;;;5080885;28;20237;-53
2022/10/19 01:34:02;;;;;;;4.03;1.70;;;;;;;;;;5080204;28;20241;-53
2022/10/19 01:36:37;;;;;;;6.00;2.22;;;;;;;;;;5082455;28;20235;-52
2022/10/19 01:39:08;;;;;;;5.35;1.90;;;;;;;;;;5078885;28;20234;-53
2022/10/19 01:41:38;;;;;;;5.65;2.03;;;;;;;;;;5079980;28;20241;-53
2022/10/19 01:44:11;;;;;;;3.25;1.63;;;;;;;;;;5079466;28;20230;-53
2022/10/19 01:46:39;;;;;;;4.72;2.90;;;;;;;;;;5071079;28;20712;-52
2022/10/19 01:49:08;;;;;;;2.45;1.52;;;;;;;;;;5075074;28;20230;-53
2022/10/19 01:51:37;;;;;;;5.32;2.30;;;;;;;;;;5080873;28;20227;-53
2022/10/19 01:54:06;;;;;;;2.55;1.60;;;;;;;;;;5078389;28;20230;-52
2022/10/19 01:56:33;;;;;;;5.75;1.90;;;;;;;;;;5072718;28;20235;-54
2022/10/19 01:59:01;;;;;;;3.50;2.30;;;;;;;;;;5063316;28;20239;-53
2022/10/19 02:01:30;;;;;;;3.45;1.58;;;;;;;;;;5066404;28;20227;-52
2022/10/19 02:03:58;;;;;;;4.78;1.75;;;;;;;;;;5067477;28;20227;-52
2022/10/19 02:06:24;;;;;;;3.95;1.73;;;;;;;;;;5058311;28;20312;-52
2022/10/19 02:08:51;;;;;;;2.75;2.28;;;;;;;;;;5063926;28;20239;-53
2022/10/19 02:11:18;;;;;;;2.15;1.50;;;;;;;;;;5065639;28;20235;-53
2022/10/19 02:13:45;;;;;;;4.30;1.58;;;;;;;;;;5065435;28;20246;-53
2022/10/19 02:16:14;;;;;;;5.05;2.17;;;;;;;;;;5062422;28;20231;-53
2022/10/19 02:18:41;;;;;;;3.05;2.33;;;;;;;;;;5067073;28;20610;-53
2022/10/19 02:21:09;;;;;;;5.07;1.60;;;;;;;;;;5066150;28;20713;-53
2022/10/19 02:23:36;;;;;;;4.10;2.47;;;;;;;;;;5064058;28;20230;-52
2022/10/19 02:26:02;;;;;;;2.50;2.05;;;;;;;;;;5060590;28;20896;-53
2022/10/19 02:28:29;;;;;;;3.92;1.75;;;;;;;;;;5068216;28;20884;-52
2022/10/19 02:30:56;;;;;;;5.03;1.52;;;;;;;;;;5067080;28;20242;-53
2022/10/19 02:33:22;;;;;;;3.45;1.50;;;;;;;;;;5067405;28;20804;-52
2022/10/19 02:35:48;;;;;;;4.80;2.03;;;;;;;;;;5066484;28;20231;-52
2022/10/19 02:38:19;;;;;;;3.63;1.35;;;;;;;;;;5065019;28;20227;-52
2022/10/19 02:40:49;;;;;;;2.33;2.08;;;;;;;;;;5067016;28;20723;-52
2022/10/19 02:43:18;;;;;;;5.72;2.63;;;;;;;;;;5066509;28;20231;-52
2022/10/19 02:45:48;;;;;;;6.82;1.98;;;;;;;;;;5059887;28;20863;-51
2022/10/19 02:48:20;;;;;;;3.80;1.67;;;;;;;;;;5063651;28;20227;-52
2022/10/19 02:50:47;;;;;;;3.75;1.50;;;;;;;;;;5063914;28;20310;-52
2022/10/19 02:53:13;;;;;;;4.45;2.35;;;;;;;;;;5063802;28;20288;-52
2022/10/19 02:55:41;;;;;;;5.78;2.03;;;;;;;;;;5063801;28;20235;-52
2022/10/19 02:58:08;;;;;;;5.47;1.80;;;;;;;;;;5082254;28;20237;-52
2022/10/19 03:00:34;;;;;;;6.25;1.88;;;;;;;;;;5084128;28;20238;-52
2022/10/19 03:03:01;;;;;;;3.70;1.27;;;;;;;;;;5085480;28;20234;-52
2022/10/19 03:05:28;;;;;;;5.85;1.95;;;;;;;;;;5084290;28;20317;-54
2022/10/19 03:07:54;;;;;;;2.80;1.17;;;;;;;;;;5082651;28;20231;-53
2022/10/19 03:10:20;;;;;;;4.90;2.20;;;;;;;;;;5087278;28;20748;-54
2022/10/19 03:12:48;;;;;;;4.22;1.60;;;;;;;;;;5083003;28;20234;-53
2022/10/19 03:15:14;;;;;;;4.43;1.90;;;;;;;;;;5083297;28;20226;-53
2022/10/19 03:17:41;;;;;;;3.70;1.73;;;;;;;;;;5083893;28;20233;-53
2022/10/19 03:20:08;;;;;;;3.85;1.38;;;;;;;;;;5078513;28;20237;-53
2022/10/19 03:22:35;;;;;;;2.83;1.95;;;;;;;;;;5080074;28;20603;-52
2022/10/19 03:25:01;;;;;;;4.72;1.58;;;;;;;;;;5084880;28;20235;-53
2022/10/19 03:27:27;;;;;;;2.25;1.52;;;;;;;;;;5081872;28;20230;-53
2022/10/19 03:29:55;;;;;;;4.50;1.57;;;;;;;;;;5084208;28;20695;-52
2022/10/19 03:32:21;;;;;;;4.20;1.20;;;;;;;;;;5081326;28;20231;-54
2022/10/19 03:34:47;;;;;;;2.65;1.42;;;;;;;;;;5083489;28;20734;-52
2022/10/19 03:37:14;;;;;;;4.55;1.20;;;;;;;;;;5082905;28;20237;-53
2022/10/19 03:39:40;;;;;;;3.53;1.55;;;;;;;;;;5080438;28;20364;-52
2022/10/19 03:42:06;;;;;;;4.28;1.90;;;;;;;;;;5082139;28;20230;-53
2022/10/19 03:44:32;;;;;;;6.60;1.50;;;;;;;;;;5082514;28;20234;-52
2022/10/19 03:47:00;;;;;;;2.25;1.23;;;;;;;;;;5084881;28;20597;-53
2022/10/19 03:49:26;;;;;;;4.90;1.08;;;;;;;;;;5082008;28;20230;-54
2022/10/19 03:51:52;;;;;;;2.45;1.67;;;;;;;;;;5077163;28;20242;-53
2022/10/19 03:54:19;;;;;;;4.13;1.42;;;;;;;;;;5078944;28;20234;-52
2022/10/19 03:56:45;;;;;;;2.08;1.20;;;;;;;;;;5076316;28;20226;-52
2022/10/19 03:59:12;;;;;;;3.65;1.20;;;;;;;;;;5077914;28;20230;-52
2022/10/19 04:01:39;;;;;;;9.53;1.37;;;;;;;;;;5083373;28;20662;-53
2022/10/19 04:04:09;;;;;;;3.67;1.60;;;;;;;;;;5083327;28;20264;-52
2022/10/19 04:06:36;;;;;;;2.08;1.08;;;;;;;;;;5082649;28;20242;-52
2022/10/19 04:09:04;;;;;;;2.08;0.93;;;;;;;;;;5083727;28;20652;-53
2022/10/19 04:11:31;;;;;;;5.03;1.42;;;;;;;;;;5083586;28;20226;-52
2022/10/19 04:13:58;;;;;;;3.95;1.58;;;;;;;;;;5074400;28;20752;-52
2022/10/19 04:16:25;;;;;;;2.05;1.00;;;;;;;;;;5083405;28;20749;-52
2022/10/19 04:18:52;;;;;;;3.03;1.42;;;;;;;;;;5082414;28;20234;-52
2022/10/19 04:21:23;;;;;;;2.05;1.20;;;;;;;;;;5082731;28;20235;-52
2022/10/19 04:23:50;;;;;;;2.80;0.73;;;;;;;;;;5077584;28;20235;-53
2022/10/19 04:26:16;;;;;;;1.08;0.73;;;;;;;;;;5082258;28;20265;-52
2022/10/19 04:28:43;;;;;;;1.40;0.90;;;;;;;;;;5079986;28;20547;-52
2022/10/19 04:31:10;;;;;;;3.50;0.87;;;;;;;;;;5081515;28;20435;-52
2022/10/19 04:33:36;;;;;;;0.98;0.60;;;;;;;;;;5081809;28;20246;-53
2022/10/19 04:36:04;;;;;;;3.50;0.93;;;;;;;;;;5083830;28;20231;-53
2022/10/19 04:38:32;;;;;;;1.13;0.80;;;;;;;;;;5076787;28;20253;-52
2022/10/19 04:41:01;;;;;;;1.85;0.80;;;;;;;;;;5082675;28;20226;-52
2022/10/19 04:43:27;;;;;;;3.70;1.15;;;;;;;;;;5081598;28;20235;-52
2022/10/19 04:45:53;;;;;;;1.15;1.05;;;;;;;;;;5081624;28;20615;-51
2022/10/19 04:48:19;;;;;;;2.17;0.90;;;;;;;;;;5082469;28;20234;-52
2022/10/19 04:50:46;;;;;;;3.63;1.20;;;;;;;;;;5083731;28;20234;-52
2022/10/19 04:53:12;;;;;;;1.73;0.87;;;;;;;;;;5083226;28;20280;-52
2022/10/19 04:55:41;;;;;;;3.33;0.83;;;;;;;;;;5081489;28;20639;-52
2022/10/19 04:58:08;;;;;;;0.80;0.75;;;;;;;;;;5083467;28;20231;-52
2022/10/19 05:00:34;;;;;;;2.33;1.13;;;;;;;;;;5081950;28;20233;-51
2022/10/19 05:03:00;;;;;;;3.60;1.38;;;;;;;;;;5083677;28;20231;-53
2022/10/19 05:05:26;;;;;;;3.50;1.35;;;;;;;;;;5083273;28;20234;-52
2022/10/19 05:07:53;;;;;;;4.90;1.73;;;;;;;;;;5081603;28;20227;-53
2022/10/19 05:10:19;;;;;;;3.80;1.23;;;;;;;;;;5082781;28;20319;-52
2022/10/19 05:12:46;;;;;;;2.00;0.90;;;;;;;;;;5082356;28;20231;-52
2022/10/19 05:15:13;;;;;;;5.22;0.85;;;;;;;;;;5082237;28;20245;-54
2022/10/19 05:17:39;;;;;;;2.90;0.68;;;;;;;;;;5082829;28;20288;-54
2022/10/19 05:20:06;;;;;;;3.22;0.90;;;;;;;;;;5082143;28;20237;-53
2022/10/19 05:22:32;;;;;;;1.88;0.77;;;;;;;;;;5082856;28;20246;-53
2022/10/19 05:24:58;;;;;;;1.85;0.90;;;;;;;;;;5078737;28;20295;-53
2022/10/19 05:27:25;;;;;;;6.18;1.10;;;;;;;;;;5078306;28;20245;-53
2022/10/19 05:29:52;;;;;;;1.08;0.52;;;;;;;;;;5083521;28;20235;-52
2022/10/19 05:32:18;;;;;;;4.35;1.02;;;;;;;;;;5079287;28;20310;-52
2022/10/19 05:34:45;;;;;;;4.60;1.77;;;;;;;;;;5083508;28;20238;-52
2022/10/19 05:37:11;;;;;;;3.50;0.90;;;;;;;;;;5083210;28;20230;-53
2022/10/19 05:39:37;;;;;;;5.85;1.00;;;;;;;;;;5086147;28;20234;-52
2022/10/19 05:42:03;;;;;;;1.33;1.08;;;;;;;;;;5085863;28;20702;-52
2022/10/19 05:44:30;;;;;;;1.70;0.87;;;;;;;;;;5084792;28;20291;-52
2022/10/19 05:46:57;;;;;;;2.38;0.85;;;;;;;;;;5086152;28;20242;-52
2022/10/19 05:49:24;;;;;;;3.10;2.05;;;;;;;;;;5085822;28;20285;-53
2022/10/19 05:51:50;;;;;;;4.05;1.30;;;;;;;;;;5079166;28;20227;-51
2022/10/19 05:54:17;;;;;;;3.95;2.00;;;;;;;;;;5085857;28;20246;-54
2022/10/19 05:56:43;;;;;;;5.80;2.05;;;;;;;;;;5085838;28;20238;-52
2022/10/19 05:59:12;;;;;;;2.15;1.48;;;;;;;;;;5084994;28;20248;-53
2022/10/19 06:01:38;;;;;;;2.67;1.45;;;;;;;;;;5083564;28;20234;-53
2022/10/19 06:04:06;;;;;;;2.03;1.08;;;;;;;;;;5085786;28;20241;-54
2022/10/19 06:06:33;;;;;;;5.13;1.42;;;;;;;;;;5084955;28;20272;-51
2022/10/19 06:09:00;;;;;;;1.50;0.82;;;;;;;;;;5085077;28;20257;-53
2022/10/19 06:11:27;;;;;;;3.40;0.80;;;;;;;;;;5084981;28;20696;-53
2022/10/19 06:13:54;;;;;;;4.80;1.33;;;;;;;;;;5086648;28;20317;-53
2022/10/19 06:16:22;;;;;;;6.23;1.80;;;;;;;;;;5084748;28;20284;-52
2022/10/19 06:18:49;;;;;;;1.90;0.85;;;;;;;;;;5084166;28;20241;-54
2022/10/19 06:21:19;;;;;;;3.03;1.17;;;;;;;;;;5086041;28;20243;-52
2022/10/19 06:23:50;;;;;;;2.20;0.65;;;;;;;;;;5085328;28;20234;-53
2022/10/19 06:26:16;;;;;;;4.70;1.40;;;;;;;;;;5085031;28;20238;-52
2022/10/19 06:28:43;;;;;;;3.23;1.70;;;;;;;;;;5084964;28;20242;-52
2022/10/19 06:31:10;;;;;;;2.28;1.02;;;;;;;;;;5085065;28;20230;-52
2022/10/19 06:33:36;;;;;;;1.63;1.07;;;;;;;;;;5085670;28;20227;-52
2022/10/19 06:36:06;;;;;;;3.50;1.70;;;;;;;;;;5084821;28;20234;-52
2022/10/19 06:38:34;;;;;;;3.13;1.45;;;;;;;;;;5085038;28;20231;-52
2022/10/19 06:41:00;;;;;;;2.03;1.00;;;;;;;;;;5085822;28;20231;-51
2022/10/19 06:43:27;;;;;;;4.30;2.30;;;;;;;;;;5084176;28;20235;-52
2022/10/19 06:45:53;;;;;;;4.75;1.20;;;;;;;;;;5085621;28;20226;-54
2022/10/19 06:48:19;;;;;;;12.83;1.67;;;;;;;;;;5085001;28;20234;-52
2022/10/19 06:50:46;;;;;;;2.85;1.17;;;;;;;;;;5084270;28;20811;-51
2022/10/19 06:53:12;;;;;;;5.30;2.15;;;;;;;;;;5085335;28;20230;-53
2022/10/19 06:55:39;;;;;;;8.47;2.13;;;;;;;;;;5084408;28;20271;-52
2022/10/19 06:58:06;;;;;;;1.65;0.95;;;;;;;;;;5082502;28;20241;-51
2022/10/19 07:00:32;;;;;;;2.63;1.00;;;;;;;;;;5085801;28;20237;-53
2022/10/19 07:02:59;;;;;;;2.67;1.10;;;;;;;;;;5083655;28;20919;-52
2022/10/19 07:05:25;;;;;;;2.70;1.38;;;;;;;;;;5082992;28;22739;-51
2022/10/19 07:07:51;;;;;;;4.47;1.10;;;;;;;;;;5083034;28;20234;-52
2022/10/19 07:10:18;;;;;;;4.07;1.67;;;;;;;;;;5083648;28;20292;-53
2022/10/19 07:12:45;;;;;;;2.53;1.08;;;;;;;;;;5082939;28;20245;-52
2022/10/19 07:15:12;;;;;;;1.70;1.10;;;;;;;;;;5079250;28;20234;-53
2022/10/19 07:17:38;;;;;;;3.15;0.80;;;;;;;;;;5084522;28;20728;-52
2022/10/19 07:20:04;;;;;;;2.65;1.02;;;;;;;;;;5086223;28;20238;-52
2022/10/19 07:22:31;;;;;;;1.92;0.73;;;;;;;;;;5082746;28;20233;-52
2022/10/19 07:24:57;;;;;;;11.00;1.97;;;;;;;;;;5074458;28;20257;-52
2022/10/19 07:27:24;;;;;;;8.27;2.17;;;;;;;;;;5081533;28;20253;-52
2022/10/19 07:29:51;;;;;;;3.65;1.65;;;;;;;;;;5081870;28;20360;-52
2022/10/19 07:32:18;;;;;;;9.65;1.42;;;;;;;;;;5083129;28;20713;-52
2022/10/19 07:34:44;;;;;;;5.30;1.60;;;;;;;;;;5083264;28;20242;-53
2022/10/19 07:37:10;;;;;;;1.55;0.98;;;;;;;;;;5082601;28;20237;-51
2022/10/19 07:39:36;;;;;;;2.17;1.00;;;;;;;;;;5079436;28;20222;-52
2022/10/19 07:42:03;;;;;;;1.85;1.35;;;;;;;;;;5086338;28;20237;-52
2022/10/19 07:44:30;;;;;;;10.07;1.63;;;;;;;;;;5082147;28;20237;-52
2022/10/19 07:46:58;;;;;;;3.28;1.10;;;;;;;;;;5085071;28;20732;-53
2022/10/19 07:49:24;;;;;;;5.25;1.83;;;;;;;;;;5083512;28;20733;-52
2022/10/19 07:51:52;;;;;;;2.70;0.90;;;;;;;;;;5084220;28;20235;-53
2022/10/19 07:54:18;;;;;;;3.03;1.55;;;;;;;;;;5083727;28;20239;-53
2022/10/19 07:56:45;;;;;;;3.65;0.85;;;;;;;;;;5079906;28;20341;-53
2022/10/19 07:59:13;;;;;;;2.33;0.95;;;;;;;;;;5076810;28;20631;-53
2022/10/19 08:01:41;;;;;;;1.95;0.65;;;;;;;;;;5085973;28;20235;-52
2022/10/19 08:04:09;;;;;;;3.00;1.40;;;;;;;;;;5081071;28;20238;-52
2022/10/19 08:06:37;;;;;;;2.28;1.70;;;;;;;;;;5083900;28;20233;-52
2022/10/19 08:09:03;;;;;;;3.25;0.80;;;;;;;;;;5082440;28;20836;-53
2022/10/19 08:11:31;;;;;;;9.05;1.63;;;;;;;;;;5081611;28;21395;-53
2022/10/19 08:13:58;;;;;;;0.93;0.80;;;;;;;;;;5079239;28;20242;-54
2022/10/19 08:16:25;;;;;;;6.10;1.77;;;;;;;;;;5080638;28;20230;-52
2022/10/19 08:18:52;;;;;;;11.98;3.55;;;;;;;;;;5083399;28;20229;-53
2022/10/19 08:21:20;;;;;;;9.35;2.08;;;;;;;;;;5079445;28;20231;-52
2022/10/19 08:23:46;;;;;;;2.58;1.38;;;;;;;;;;5081094;28;20229;-52
2022/10/19 08:26:12;;;;;;;2.80;1.90;;;;;;;;;;5083696;28;20230;-52
2022/10/19 08:28:39;;;;;;;4.55;2.03;;;;;;;;;;5083063;28;20242;-53
2022/10/19 08:31:12;;;;;;;3.20;1.10;;;;;;;;;;5080552;28;20783;-52
2022/10/19 08:33:39;;;;;;;5.05;1.48;;;;;;;;;;5081864;28;20237;-53
2022/10/19 08:36:06;;;;;;;1.55;1.23;;;;;;;;;;5082631;28;20230;-52
2022/10/19 08:38:34;;;;;;;1.55;0.80;;;;;;;;;;5081990;28;20417;-52
2022/10/19 08:41:06;;;;;;;5.07;1.25;;;;;;;;;;5082307;28;20249;-53
2022/10/19 08:43:35;;;;;;;3.60;1.05;;;;;;;;;;5078801;28;20236;-51
2022/10/19 08:46:06;;;;;;;5.43;1.40;;;;;;;;;;5081860;28;20601;-53
2022/10/19 08:48:35;;;;;;;4.05;1.08;;;;;;;;;;5079772;28;20314;-52
2022/10/19 08:51:02;;;;;;;4.10;1.58;;;;;;;;;;5082123;28;20238;-52
2022/10/19 08:53:37;;;;;;;4.47;2.00;;;;;;;;;;5081409;28;20845;-53
2022/10/19 08:56:28;;;;;;;4.43;1.40;;;;;;;;;;5079129;28;20234;-53
2022/10/19 08:59:05;;;;;;;3.13;1.08;;;;;;;;;;5064708;28;20680;-53
2022/10/19 09:01:34;;;;;;;2.63;1.13;;;;;;;;;;5081146;28;20232;-52
2022/10/19 09:04:02;;;;;;;3.95;1.42;;;;;;;;;;5079780;28;20230;-52
2022/10/19 09:06:31;;;;;;;2.88;0.98;;;;;;;;;;5082223;28;20701;-52
2022/10/19 09:08:59;;;;;;;5.78;1.90;;;;;;;;;;5079715;28;20242;-52
2022/10/19 09:11:28;;;;;;;4.50;1.25;;;;;;;;;;5074351;28;20227;-52
2022/10/19 09:13:57;;;;;;;1.27;0.93;;;;;;;;;;5085983;28;20236;-52
2022/10/19 09:16:24;;;;;;;5.78;1.75;;;;;;;;;;5085521;28;20234;-54
2022/10/19 09:18:51;;;;;;;3.78;1.58;;;;;;;;;;5078896;28;20241;-52
2022/10/19 09:21:19;;;;;;;16.88;6.28;;;;;;;;;;5085318;28;20238;-52
2022/10/19 09:23:51;;;;;;;11.63;4.75;;;;;;;;;;5083930;28;20234;-53
2022/10/19 09:26:19;;;;;;;8.82;2.67;;;;;;;;;;5086181;28;20234;-53
2022/10/19 09:28:49;;;;;;;5.00;1.27;;;;;;;;;;5085064;28;20227;-52
2022/10/19 09:31:21;;;;;;;2.53;1.75;;;;;;;;;;5084018;28;20227;-52
2022/10/19 09:33:50;;;;;;;1.48;0.60;;;;;;;;;;5084763;28;20230;-53
2022/10/19 09:36:17;;;;;;;3.72;0.98;;;;;;;;;;5086973;28;20234;-52
2022/10/19 09:38:43;;;;;;;1.48;0.95;;;;;;;;;;5083788;28;20728;-52
2022/10/19 09:41:15;;;;;;;2.08;0.73;;;;;;;;;;5081891;28;20237;-54
2022/10/19 09:43:49;;;;;;;4.68;0.85;;;;;;;;;;5083685;28;20223;-52
2022/10/19 09:46:20;;;;;;;1.10;0.90;;;;;;;;;;5085502;28;20602;-53
2022/10/19 09:48:48;;;;;;;2.90;1.10;;;;;;;;;;5085159;28;20231;-52
2022/10/19 09:51:15;;;;;;;0.95;0.93;;;;;;;;;;5085830;28;20230;-53
2022/10/19 09:53:44;;;;;;;2.00;1.48;;;;;;;;;;5081020;28;20239;-52
2022/10/19 09:56:17;;;;;;;2.92;1.15;;;;;;;;;;5081589;28;20798;-52
2022/10/19 09:58:48;;;;;;;2.63;1.00;;;;;;;;;;5084055;28;20241;-52
2022/10/19 10:01:29;;;;;;;4.65;1.58;;;;;;;;;;5085223;28;20309;-52
2022/10/19 10:04:04;;;;;;;3.88;1.67;;;;;;;;;;5079354;28;20802;-53
2022/10/19 10:06:31;;;;;;;3.65;1.45;;;;;;;;;;5085262;28;20231;-53
2022/10/19 10:08:57;;;;;;;3.95;1.20;;;;;;;;;;5085818;28;20230;-52
2022/10/19 10:11:25;;;;;;;3.22;0.88;;;;;;;;;;5081835;28;20243;-52
2022/10/19 10:13:54;;;;;;;2.40;0.73;;;;;;;;;;5081841;28;20235;-53
2022/10/19 10:16:21;;;;;;;2.40;0.95;;;;;;;;;;5084518;28;20234;-51
2022/10/19 10:18:52;;;;;;;2.33;0.93;;;;;;;;;;5082338;28;20238;-53
2022/10/19 10:21:23;;;;;;;3.22;0.82;;;;;;;;;;5086340;28;20238;-52
2022/10/19 10:23:59;;;;;;;1.67;1.23;;;;;;;;;;5087126;28;20235;-52
2022/10/19 10:26:26;;;;;;;3.22;1.00;;;;;;;;;;5085929;28;20238;-52
2022/10/19 10:28:54;;;;;;;0.82;0.68;;;;;;;;;;5085273;28;20226;-53
2022/10/19 10:31:22;;;;;;;1.77;1.00;;;;;;;;;;5083080;28;20230;-52
2022/10/19 10:33:53;;;;;;;2.47;0.73;;;;;;;;;;5081830;28;20234;-53
2022/10/19 10:36:23;;;;;;;1.65;0.85;;;;;;;;;;5083716;28;20230;-52
2022/10/19 10:38:50;;;;;;;2.20;0.80;;;;;;;;;;5082895;28;20230;-53
2022/10/19 10:41:19;;;;;;;2.53;0.82;;;;;;;;;;5083096;28;20238;-52
2022/10/19 10:43:53;;;;;;;1.38;0.85;;;;;;;;;;5082222;28;20226;-53
2022/10/19 10:46:23;;;;;;;0.60;0.60;;;;;;;;;;5081985;28;20875;-53
2022/10/19 10:48:53;;;;;;;0.73;0.65;;;;;;;;;;5083027;28;20222;-52
2022/10/19 10:51:22;;;;;;;1.75;1.00;;;;;;;;;;5083807;28;20238;-53
2022/10/19 10:53:49;;;;;;;1.23;0.80;;;;;;;;;;5082506;28;20242;-52
2022/10/19 10:56:22;;;;;;;0.30;0.30;;;;;;;;;;5081954;28;20234;-53
2022/10/19 10:58:50;;;;;;;1.10;0.50;;;;;;;;;;5080147;28;20226;-54
2022/10/19 11:01:19;;;;;;;2.30;0.65;;;;;;;;;;5082395;28;20234;-53
2022/10/19 11:03:49;;;;;;;0.98;0.57;;;;;;;;;;5082014;28;20235;-52
2022/10/19 11:06:17;;;;;;;0.82;0.60;;;;;;;;;;5081173;28;20231;-53
2022/10/19 11:08:46;;;;;;;0.73;0.40;;;;;;;;;;5079616;28;20284;-52
2022/10/19 11:11:15;;;;;;;0.40;0.40;;;;;;;;;;5075549;28;20239;-53
2022/10/19 11:13:43;;;;;;;1.85;0.60;;;;;;;;;;5083560;28;20244;-53
2022/10/19 11:16:12;;;;;;;0.55;0.47;;;;;;;;;;5080126;28;20238;-52
2022/10/19 11:18:41;;;;;;;0.57;0.47;;;;;;;;;;5081600;28;20250;-52
2022/10/19 11:21:11;;;;;;;1.85;0.80;;;;;;;;;;5081869;28;20230;-51
2022/10/19 11:23:42;;;;;;;1.08;0.68;;;;;;;;;;5082475;28;20237;-52
2022/10/19 11:26:15;;;;;;;0.50;0.38;;;;;;;;;;5079131;28;20218;-52
2022/10/19 11:28:46;;;;;;;0.88;0.47;;;;;;;;;;5079422;28;20230;-51
2022/10/19 11:31:15;;;;;;;1.00;0.70;;;;;;;;;;5079995;28;20227;-52
2022/10/19 11:33:53;;;;;;;0.75;0.50;;;;;;;;;;5081390;28;20223;-53
2022/10/19 11:36:27;;;;;;;0.60;0.50;;;;;;;;;;5083503;28;20233;-52
2022/10/19 11:38:59;;;;;;;1.65;0.50;;;;;;;;;;5080427;28;20237;-53
2022/10/19 11:41:29;;;;;;;0.50;0.50;;;;;;;;;;5085100;28;20238;-54
2022/10/19 11:44:16;;;;;;;1.35;0.80;;;;;;;;;;5084740;28;20593;-52
2022/10/19 11:46:46;;;;;;;1.92;1.20;;;;;;;;;;5083442;28;20234;-52
2022/10/19 11:49:18;;;;;;;3.72;0.80;;;;;;;;;;5080072;28;20237;-53
2022/10/19 11:51:50;;;;;;;1.48;0.93;;;;;;;;;;5083457;28;20234;-51
2022/10/19 11:54:29;;;;;;;1.10;1.00;;;;;;;;;;5080387;28;20239;-53
2022/10/19 11:56:57;;;;;;;1.52;0.80;;;;;;;;;;5080494;28;20261;-53
2022/10/19 11:59:29;;;;;;;1.70;1.00;;;;;;;;;;5084484;28;20237;-52
2022/10/19 12:01:59;;;;;;;0.75;0.60;;;;;;;;;;5082835;28;20227;-51
2022/10/19 12:04:36;;;;;;;1.95;0.70;;;;;;;;;;5077611;28;20240;-53
2022/10/19 12:07:11;;;;;;;1.48;0.60;;;;;;;;;;5076212;28;20724;-53
2022/10/19 12:09:41;;;;;;;0.95;0.70;;;;;;;;;;5079599;28;20730;-52
2022/10/19 12:12:18;;;;;;;0.75;0.65;;;;;;;;;;5082611;28;20239;-52
2022/10/19 12:14:46;;;;;;;2.53;0.60;;;;;;;;;;5080503;28;20606;-52
2022/10/19 12:17:15;;;;;;;2.65;1.20;;;;;;;;;;5080668;28;20231;-51
2022/10/19 12:19:44;;;;;;;1.27;0.65;;;;;;;;;;5085787;28;20231;-53
2022/10/19 12:22:15;;;;;;;1.08;0.82;;;;;;;;;;5076656;28;20226;-53
2022/10/19 12:24:41;;;;;;;2.08;0.82;;;;;;;;;;5083242;28;20242;-53
2022/10/19 12:27:11;;;;;;;1.75;0.82;;;;;;;;;;5082729;28;20712;-53
2022/10/19 12:29:39;;;;;;;1.35;0.40;;;;;;;;;;5083730;28;20222;-52
2022/10/19 12:32:06;;;;;;;0.70;0.65;;;;;;;;;;5080388;28;20241;-54
2022/10/19 12:34:36;;;;;;;0.73;0.60;;;;;;;;;;5082919;28;20234;-52
2022/10/19 12:37:06;;;;;;;1.38;0.80;;;;;;;;;;5083706;28;20241;-53
2022/10/19 12:39:39;;;;;;;0.98;0.50;;;;;;;;;;5079100;28;20287;-52
2022/10/19 12:42:12;;;;;;;1.85;0.63;;;;;;;;;;5076843;28;20230;-51
2022/10/19 12:44:51;;;;;;;0.38;0.38;;;;;;;;;;5082496;28;20871;-52
2022/10/19 12:47:19;;;;;;;0.70;0.55;;;;;;;;;;5082425;28;20700;-51
2022/10/19 12:49:46;;;;;;;0.68;0.50;;;;;;;;;;5084182;28;20237;-53
2022/10/19 12:52:13;;;;;;;1.85;0.55;;;;;;;;;;5081879;28;20622;-51
2022/10/19 12:54:42;;;;;;;2.13;0.40;;;;;;;;;;5081145;28;20245;-51
2022/10/19 12:57:23;;;;;;;1.70;0.88;;;;;;;;;;5082372;28;20317;-52
2022/10/19 12:59:58;;;;;;;0.98;0.63;;;;;;;;;;5079785;28;20226;-52
2022/10/19 13:02:27;;;;;;;0.70;0.60;;;;;;;;;;5082686;28;20606;-53
2022/10/19 13:04:54;;;;;;;2.30;0.70;;;;;;;;;;5082464;28;20230;-51
2022/10/19 13:07:20;;;;;;;1.17;0.65;;;;;;;;;;5081302;28;20769;-53
2022/10/19 13:09:48;;;;;;;0.50;0.38;;;;;;;;;;5080883;28;21000;-52
2022/10/19 13:12:28;;;;;;;0.90;0.52;;;;;;;;;;5080564;28;20241;-51
2022/10/19 13:14:54;;;;;;;1.50;1.00;;;;;;;;;;5079279;28;20624;-53
2022/10/19 13:17:36;;;;;;;1.52;0.50;;;;;;;;;;5082242;28;20242;-51
2022/10/19 13:20:17;;;;;;;0.47;0.47;;;;;;;;;;5082334;28;20226;-53
2022/10/19 13:22:44;;;;;;;2.55;0.80;;;;;;;;;;5079008;28;20592;-52
2022/10/19 13:25:25;;;;;;;1.08;0.77;;;;;;;;;;5080768;28;20658;-51
2022/10/19 13:27:52;;;;;;;1.42;1.02;;;;;;;;;;5075284;28;20223;-53
2022/10/19 13:30:37;;;;;;;2.20;1.13;;;;;;;;;;5081924;28;20623;-51
2022/10/19 13:33:19;;;;;;;1.23;0.88;;;;;;;;;;5078423;28;20303;-52
2022/10/19 13:35:45;;;;;;;2.58;0.63;;;;;;;;;;5080975;28;20303;-53
2022/10/19 13:38:20;;;;;;;1.30;0.60;;;;;;;;;;5083339;28;20234;-51
2022/10/19 13:40:59;;;;;;;1.92;0.70;;;;;;;;;;5085977;28;20249;-52
2022/10/19 13:43:26;;;;;;;0.57;0.57;;;;;;;;;;5080861;28;20241;-52
2022/10/19 13:45:54;;;;;;;2.33;0.80;;;;;;;;;;5080784;28;20261;-53
2022/10/19 13:48:24;;;;;;;1.58;0.60;;;;;;;;;;5081940;28;20231;-52
2022/10/19 13:50:54;;;;;;;1.48;0.63;;;;;;;;;;5081960;28;20890;-52
2022/10/19 13:53:34;;;;;;;1.42;0.38;;;;;;;;;;5082239;28;20750;-52
2022/10/19 13:56:14;;;;;;;1.20;0.60;;;;;;;;;;5082014;28;20250;-53
2022/10/19 13:58:53;;;;;;;1.92;0.93;;;;;;;;;;5085081;28;20233;-53
2022/10/19 14:01:25;;;;;;;2.95;0.98;;;;;;;;;;5085171;28;20226;-53
2022/10/19 14:04:02;;;;;;;2.42;0.98;;;;;;;;;;5082281;28;20245;-52
2022/10/19 14:06:32;;;;;;;0.82;0.70;;;;;;;;;;5086421;28;20237;-53
2022/10/19 14:09:19;;;;;;;0.50;0.50;;;;;;;;;;5088301;28;20227;-53
2022/10/19 14:11:48;;;;;;;1.35;0.50;;;;;;;;;;5081086;28;20223;-52
2022/10/19 14:14:15;;;;;;;0.60;0.50;;;;;;;;;;5080740;28;20239;-52
2022/10/19 14:16:46;;;;;;;1.33;0.75;;;;;;;;;;5085252;28;20235;-53
2022/10/19 14:19:13;;;;;;;2.53;1.25;;;;;;;;;;5085309;28;20231;-52
2022/10/19 14:21:40;;;;;;;1.77;1.55;;;;;;;;;;5085009;28;20227;-53
2022/10/19 14:24:18;;;;;;;2.10;1.15;;;;;;;;;;5085769;28;20239;-51
2022/10/19 14:26:46;;;;;;;2.90;1.23;;;;;;;;;;5082138;28;20226;-52
2022/10/19 14:29:14;;;;;;;1.10;0.80;;;;;;;;;;5080143;28;20246;-52
2022/10/19 14:31:41;;;;;;;1.30;1.20;;;;;;;;;;5086579;28;20258;-52
2022/10/19 14:34:08;;;;;;;1.58;0.98;;;;;;;;;;5078881;28;20242;-52
2022/10/19 14:36:37;;;;;;;1.13;0.90;;;;;;;;;;5084688;28;20230;-53
2022/10/19 14:39:04;;;;;;;2.05;0.90;;;;;;;;;;5085507;28;20242;-53
2022/10/19 14:41:31;;;;;;;0.85;0.65;;;;;;;;;;5085069;28;20239;-51
2022/10/19 14:43:58;;;;;;;1.20;0.60;;;;;;;;;;5082259;28;20238;-53
2022/10/19 14:46:27;;;;;;;1.58;0.80;;;;;;;;;;5091948;28;20263;-52
2022/10/19 14:48:58;;;;;;;1.08;0.68;;;;;;;;;;5083137;28;20712;-52
2022/10/19 14:51:29;;;;;;;1.40;0.90;;;;;;;;;;5082017;28;20226;-52
2022/10/19 14:53:59;;;;;;;2.22;1.10;;;;;;;;;;5083863;28;20238;-52
2022/10/19 14:56:29;;;;;;;1.65;0.57;;;;;;;;;;5083938;28;20253;-53